sensor_id;sensor_type;location;lat;lon;timestamp;P1;durP1;ratioP1;P2;durP2;ratioP2
66721;SDS011;53633;49.932;10.884;2023-05-29T00:02:05;8.25;;;2.03;;
66721;SDS011;53633;49.932;10.884;2023-05-29T00:04:31;5.63;;;1.92;;
66721;SDS011;53633;49.932;10.884;2023-05-29T00:06:58;8.20;;;1.80;;
66721;SDS011;53633;49.932;10.884;2023-05-29T00:09:25;6.00;;;1.73;;
66721;SDS011;53633;49.932;10.884;2023-05-29T00:11:53;5.93;;;2.20;;
66721;SDS011;53633;49.932;10.884;2023-05-29T00:14:20;5.88;;;2.00;;
66721;SDS011;53633;49.932;10.884;2023-05-29T00:16:47;7.10;;;2.10;;
66721;SDS011;53633;49.932;10.884;2023-05-29T00:19:13;6.25;;;1.90;;
66721;SDS011;53633;49.932;10.884;2023-05-29T00:21:40;7.50;;;1.90;;
66721;SDS011;53633;49.932;10.884;2023-05-29T00:24:07;7.47;;;2.10;;
66721;SDS011;53633;49.932;10.884;2023-05-29T00:26:34;6.68;;;1.80;;
66721;SDS011;53633;49.932;10.884;2023-05-29T00:29:02;7.32;;;1.90;;
66721;SDS011;53633;49.932;10.884;2023-05-29T00:31:29;7.00;;;2.22;;
66721;SDS011;53633;49.932;10.884;2023-05-29T00:33:56;7.72;;;2.00;;
66721;SDS011;53633;49.932;10.884;2023-05-29T00:36:23;9.77;;;2.27;;
66721;SDS011;53633;49.932;10.884;2023-05-29T00:38:50;8.63;;;2.35;;
66721;SDS011;53633;49.932;10.884;2023-05-29T00:41:17;9.55;;;2.50;;
66721;SDS011;53633;49.932;10.884;2023-05-29T00:43:44;7.35;;;2.05;;
66721;SDS011;53633;49.932;10.884;2023-05-29T00:46:12;6.68;;;1.70;;
66721;SDS011;53633;49.932;10.884;2023-05-29T00:48:40;5.60;;;1.80;;
66721;SDS011;53633;49.932;10.884;2023-05-29T00:51:08;6.10;;;1.85;;
66721;SDS011;53633;49.932;10.884;2023-05-29T00:53:37;7.43;;;2.00;;
66721;SDS011;53633;49.932;10.884;2023-05-29T00:56:04;8.30;;;1.83;;
66721;SDS011;53633;49.932;10.884;2023-05-29T00:58:31;6.68;;;2.00;;
66721;SDS011;53633;49.932;10.884;2023-05-29T01:00:58;6.73;;;1.83;;
66721;SDS011;53633;49.932;10.884;2023-05-29T01:03:27;8.02;;;1.90;;
66721;SDS011;53633;49.932;10.884;2023-05-29T01:05:54;7.03;;;2.15;;
66721;SDS011;53633;49.932;10.884;2023-05-29T01:08:21;6.90;;;1.85;;
66721;SDS011;53633;49.932;10.884;2023-05-29T01:10:47;10.35;;;2.13;;
66721;SDS011;53633;49.932;10.884;2023-05-29T01:13:19;6.30;;;2.13;;
66721;SDS011;53633;49.932;10.884;2023-05-29T01:15:51;6.15;;;1.88;;
66721;SDS011;53633;49.932;10.884;2023-05-29T01:18:27;6.88;;;2.13;;
66721;SDS011;53633;49.932;10.884;2023-05-29T01:21:03;10.85;;;2.38;;
66721;SDS011;53633;49.932;10.884;2023-05-29T01:23:50;7.72;;;1.83;;
66721;SDS011;53633;49.932;10.884;2023-05-29T01:26:32;6.60;;;1.80;;
66721;SDS011;53633;49.932;10.884;2023-05-29T01:29:07;5.78;;;1.80;;
66721;SDS011;53633;49.932;10.884;2023-05-29T01:31:36;9.00;;;2.03;;
66721;SDS011;53633;49.932;10.884;2023-05-29T01:34:03;8.68;;;3.38;;
66721;SDS011;53633;49.932;10.884;2023-05-29T01:36:30;8.23;;;2.10;;
66721;SDS011;53633;49.932;10.884;2023-05-29T01:38:57;6.90;;;1.90;;
66721;SDS011;53633;49.932;10.884;2023-05-29T01:41:25;6.78;;;2.20;;
66721;SDS011;53633;49.932;10.884;2023-05-29T01:43:54;6.10;;;1.73;;
66721;SDS011;53633;49.932;10.884;2023-05-29T01:46:23;8.15;;;2.03;;
66721;SDS011;53633;49.932;10.884;2023-05-29T01:48:50;6.75;;;2.20;;
66721;SDS011;53633;49.932;10.884;2023-05-29T01:51:17;8.30;;;2.00;;
66721;SDS011;53633;49.932;10.884;2023-05-29T01:53:44;7.22;;;2.05;;
66721;SDS011;53633;49.932;10.884;2023-05-29T01:56:11;8.15;;;2.25;;
66721;SDS011;53633;49.932;10.884;2023-05-29T01:58:38;6.90;;;1.90;;
66721;SDS011;53633;49.932;10.884;2023-05-29T02:01:09;5.85;;;1.92;;
66721;SDS011;53633;49.932;10.884;2023-05-29T02:03:36;7.73;;;2.17;;
66721;SDS011;53633;49.932;10.884;2023-05-29T02:06:03;10.50;;;2.30;;
66721;SDS011;53633;49.932;10.884;2023-05-29T02:08:29;8.00;;;2.00;;
66721;SDS011;53633;49.932;10.884;2023-05-29T02:10:56;9.30;;;2.30;;
66721;SDS011;53633;49.932;10.884;2023-05-29T02:13:23;7.80;;;2.78;;
66721;SDS011;53633;49.932;10.884;2023-05-29T02:15:50;6.97;;;2.20;;
66721;SDS011;53633;49.932;10.884;2023-05-29T02:18:18;5.63;;;1.92;;
66721;SDS011;53633;49.932;10.884;2023-05-29T02:20:45;7.22;;;2.75;;
66721;SDS011;53633;49.932;10.884;2023-05-29T02:23:12;6.43;;;2.05;;
66721;SDS011;53633;49.932;10.884;2023-05-29T02:25:39;7.22;;;2.30;;
66721;SDS011;53633;49.932;10.884;2023-05-29T02:28:06;10.60;;;2.77;;
66721;SDS011;53633;49.932;10.884;2023-05-29T02:30:32;6.63;;;2.05;;
66721;SDS011;53633;49.932;10.884;2023-05-29T02:32:59;7.78;;;2.28;;
66721;SDS011;53633;49.932;10.884;2023-05-29T02:35:27;7.95;;;2.60;;
66721;SDS011;53633;49.932;10.884;2023-05-29T02:37:54;9.75;;;2.55;;
66721;SDS011;53633;49.932;10.884;2023-05-29T02:40:21;7.13;;;2.10;;
66721;SDS011;53633;49.932;10.884;2023-05-29T02:42:48;11.32;;;2.33;;
66721;SDS011;53633;49.932;10.884;2023-05-29T02:45:14;8.52;;;2.40;;
66721;SDS011;53633;49.932;10.884;2023-05-29T02:47:41;8.25;;;2.60;;
66721;SDS011;53633;49.932;10.884;2023-05-29T02:50:08;7.78;;;2.58;;
66721;SDS011;53633;49.932;10.884;2023-05-29T02:52:37;9.23;;;2.40;;
66721;SDS011;53633;49.932;10.884;2023-05-29T02:55:04;8.25;;;2.20;;
66721;SDS011;53633;49.932;10.884;2023-05-29T02:57:31;5.80;;;1.90;;
66721;SDS011;53633;49.932;10.884;2023-05-29T02:59:58;8.52;;;2.40;;
66721;SDS011;53633;49.932;10.884;2023-05-29T03:02:25;6.82;;;2.10;;
66721;SDS011;53633;49.932;10.884;2023-05-29T03:04:52;9.10;;;2.30;;
66721;SDS011;53633;49.932;10.884;2023-05-29T03:07:19;7.30;;;2.17;;
66721;SDS011;53633;49.932;10.884;2023-05-29T03:09:47;8.00;;;2.50;;
66721;SDS011;53633;49.932;10.884;2023-05-29T03:12:14;6.72;;;2.10;;
66721;SDS011;53633;49.932;10.884;2023-05-29T03:14:40;6.93;;;2.30;;
66721;SDS011;53633;49.932;10.884;2023-05-29T03:17:07;8.57;;;2.43;;
66721;SDS011;53633;49.932;10.884;2023-05-29T03:19:34;8.95;;;2.45;;
66721;SDS011;53633;49.932;10.884;2023-05-29T03:22:01;7.53;;;2.55;;
66721;SDS011;53633;49.932;10.884;2023-05-29T03:24:27;7.43;;;2.20;;
66721;SDS011;53633;49.932;10.884;2023-05-29T03:26:55;7.72;;;2.22;;
66721;SDS011;53633;49.932;10.884;2023-05-29T03:29:22;7.73;;;2.40;;
66721;SDS011;53633;49.932;10.884;2023-05-29T03:31:49;7.57;;;2.13;;
66721;SDS011;53633;49.932;10.884;2023-05-29T03:34:16;9.32;;;2.53;;
66721;SDS011;53633;49.932;10.884;2023-05-29T03:36:42;7.45;;;2.10;;
66721;SDS011;53633;49.932;10.884;2023-05-29T03:39:09;7.65;;;2.53;;
66721;SDS011;53633;49.932;10.884;2023-05-29T03:41:36;6.57;;;1.87;;
66721;SDS011;53633;49.932;10.884;2023-05-29T03:44:04;7.18;;;2.15;;
66721;SDS011;53633;49.932;10.884;2023-05-29T03:46:31;6.38;;;2.00;;
66721;SDS011;53633;49.932;10.884;2023-05-29T03:48:58;7.43;;;2.33;;
66721;SDS011;53633;49.932;10.884;2023-05-29T03:51:24;6.72;;;1.90;;
66721;SDS011;53633;49.932;10.884;2023-05-29T03:53:51;7.43;;;2.20;;
66721;SDS011;53633;49.932;10.884;2023-05-29T03:56:18;8.20;;;2.20;;
66721;SDS011;53633;49.932;10.884;2023-05-29T03:58:44;7.30;;;2.40;;
66721;SDS011;53633;49.932;10.884;2023-05-29T04:01:13;7.55;;;2.20;;
66721;SDS011;53633;49.932;10.884;2023-05-29T04:03:39;10.35;;;2.63;;
66721;SDS011;53633;49.932;10.884;2023-05-29T04:06:06;10.13;;;2.17;;
66721;SDS011;53633;49.932;10.884;2023-05-29T04:08:33;7.25;;;2.05;;
66721;SDS011;53633;49.932;10.884;2023-05-29T04:11:00;7.95;;;2.30;;
66721;SDS011;53633;49.932;10.884;2023-05-29T04:13:27;7.93;;;2.28;;
66721;SDS011;53633;49.932;10.884;2023-05-29T04:15:53;7.13;;;2.40;;
66721;SDS011;53633;49.932;10.884;2023-05-29T04:18:22;7.13;;;2.30;;
66721;SDS011;53633;49.932;10.884;2023-05-29T04:20:49;9.00;;;2.28;;
66721;SDS011;53633;49.932;10.884;2023-05-29T04:23:16;6.35;;;2.30;;
66721;SDS011;53633;49.932;10.884;2023-05-29T04:25:42;6.15;;;2.30;;
66721;SDS011;53633;49.932;10.884;2023-05-29T04:28:09;6.93;;;2.33;;
66721;SDS011;53633;49.932;10.884;2023-05-29T04:30:36;7.73;;;2.47;;
66721;SDS011;53633;49.932;10.884;2023-05-29T04:33:03;8.80;;;2.90;;
66721;SDS011;53633;49.932;10.884;2023-05-29T04:35:31;7.22;;;2.70;;
66721;SDS011;53633;49.932;10.884;2023-05-29T04:37:58;7.43;;;2.58;;
66721;SDS011;53633;49.932;10.884;2023-05-29T04:40:24;9.10;;;2.80;;
66721;SDS011;53633;49.932;10.884;2023-05-29T04:42:51;7.87;;;3.00;;
66721;SDS011;53633;49.932;10.884;2023-05-29T04:45:19;10.85;;;2.80;;
66721;SDS011;53633;49.932;10.884;2023-05-29T04:47:46;7.78;;;2.88;;
66721;SDS011;53633;49.932;10.884;2023-05-29T04:50:13;7.45;;;2.80;;
66721;SDS011;53633;49.932;10.884;2023-05-29T04:52:42;6.50;;;2.38;;
66721;SDS011;53633;49.932;10.884;2023-05-29T04:55:08;6.87;;;2.97;;
66721;SDS011;53633;49.932;10.884;2023-05-29T04:57:35;7.03;;;2.28;;
66721;SDS011;53633;49.932;10.884;2023-05-29T05:00:02;6.35;;;2.70;;
66721;SDS011;53633;49.932;10.884;2023-05-29T05:02:29;7.45;;;2.60;;
66721;SDS011;53633;49.932;10.884;2023-05-29T05:04:55;6.55;;;2.53;;
66721;SDS011;53633;49.932;10.884;2023-05-29T05:07:22;7.50;;;2.73;;
66721;SDS011;53633;49.932;10.884;2023-05-29T05:09:50;6.57;;;2.70;;
66721;SDS011;53633;49.932;10.884;2023-05-29T05:12:17;8.25;;;3.00;;
66721;SDS011;53633;49.932;10.884;2023-05-29T05:14:44;7.93;;;2.67;;
66721;SDS011;53633;49.932;10.884;2023-05-29T05:17:10;7.85;;;2.92;;
66721;SDS011;53633;49.932;10.884;2023-05-29T05:19:37;7.10;;;3.07;;
66721;SDS011;53633;49.932;10.884;2023-05-29T05:22:04;6.78;;;2.53;;
66721;SDS011;53633;49.932;10.884;2023-05-29T05:24:30;11.02;;;4.05;;
66721;SDS011;53633;49.932;10.884;2023-05-29T05:26:58;7.28;;;2.80;;
66721;SDS011;53633;49.932;10.884;2023-05-29T05:29:25;7.20;;;2.92;;
66721;SDS011;53633;49.932;10.884;2023-05-29T05:31:53;9.23;;;2.90;;
66721;SDS011;53633;49.932;10.884;2023-05-29T05:34:20;8.43;;;3.05;;
66721;SDS011;53633;49.932;10.884;2023-05-29T05:36:47;7.70;;;3.00;;
66721;SDS011;53633;49.932;10.884;2023-05-29T05:39:13;6.25;;;2.60;;
66721;SDS011;53633;49.932;10.884;2023-05-29T05:41:40;6.95;;;2.88;;
66721;SDS011;53633;49.932;10.884;2023-05-29T05:44:08;7.23;;;2.90;;
66721;SDS011;53633;49.932;10.884;2023-05-29T05:46:35;6.80;;;2.90;;
66721;SDS011;53633;49.932;10.884;2023-05-29T05:49:02;6.60;;;3.00;;
66721;SDS011;53633;49.932;10.884;2023-05-29T05:51:29;7.95;;;2.90;;
66721;SDS011;53633;49.932;10.884;2023-05-29T05:53:55;7.40;;;3.10;;
66721;SDS011;53633;49.932;10.884;2023-05-29T05:56:22;6.73;;;2.83;;
66721;SDS011;53633;49.932;10.884;2023-05-29T05:58:49;9.43;;;2.83;;
66721;SDS011;53633;49.932;10.884;2023-05-29T06:01:17;7.43;;;2.90;;
66721;SDS011;53633;49.932;10.884;2023-05-29T06:03:44;6.70;;;2.85;;
66721;SDS011;53633;49.932;10.884;2023-05-29T06:06:10;6.72;;;2.78;;
66721;SDS011;53633;49.932;10.884;2023-05-29T06:08:37;6.70;;;2.90;;
66721;SDS011;53633;49.932;10.884;2023-05-29T06:11:04;7.70;;;3.00;;
66721;SDS011;53633;49.932;10.884;2023-05-29T06:13:31;6.53;;;3.50;;
66721;SDS011;53633;49.932;10.884;2023-05-29T06:15:58;7.18;;;3.10;;
66721;SDS011;53633;49.932;10.884;2023-05-29T06:18:26;7.35;;;3.40;;
66721;SDS011;53633;49.932;10.884;2023-05-29T06:20:52;6.27;;;2.93;;
66721;SDS011;53633;49.932;10.884;2023-05-29T06:23:20;6.95;;;2.83;;
66721;SDS011;53633;49.932;10.884;2023-05-29T06:25:46;9.85;;;2.90;;
66721;SDS011;53633;49.932;10.884;2023-05-29T06:28:13;6.05;;;2.90;;
66721;SDS011;53633;49.932;10.884;2023-05-29T06:30:40;6.10;;;2.88;;
66721;SDS011;53633;49.932;10.884;2023-05-29T06:33:08;6.60;;;3.03;;
66721;SDS011;53633;49.932;10.884;2023-05-29T06:35:36;5.95;;;2.95;;
66721;SDS011;53633;49.932;10.884;2023-05-29T06:38:02;8.15;;;3.08;;
66721;SDS011;53633;49.932;10.884;2023-05-29T06:40:29;8.10;;;3.08;;
66721;SDS011;53633;49.932;10.884;2023-05-29T06:42:56;6.65;;;2.78;;
66721;SDS011;53633;49.932;10.884;2023-05-29T06:45:23;6.23;;;2.83;;
66721;SDS011;53633;49.932;10.884;2023-05-29T06:47:49;6.03;;;2.60;;
66721;SDS011;53633;49.932;10.884;2023-05-29T06:50:16;6.93;;;3.10;;
66721;SDS011;53633;49.932;10.884;2023-05-29T06:52:44;6.97;;;2.60;;
66721;SDS011;53633;49.932;10.884;2023-05-29T06:55:11;8.00;;;2.83;;
66721;SDS011;53633;49.932;10.884;2023-05-29T06:57:38;5.43;;;2.53;;
66721;SDS011;53633;49.932;10.884;2023-05-29T07:00:05;6.18;;;2.45;;
66721;SDS011;53633;49.932;10.884;2023-05-29T07:02:32;7.20;;;2.85;;
66721;SDS011;53633;49.932;10.884;2023-05-29T07:04:59;6.28;;;2.63;;
66721;SDS011;53633;49.932;10.884;2023-05-29T07:07:26;6.85;;;2.60;;
66721;SDS011;53633;49.932;10.884;2023-05-29T07:09:54;7.20;;;3.00;;
66721;SDS011;53633;49.932;10.884;2023-05-29T07:12:21;6.53;;;2.67;;
66721;SDS011;53633;49.932;10.884;2023-05-29T07:14:48;6.28;;;3.00;;
66721;SDS011;53633;49.932;10.884;2023-05-29T07:17:15;7.65;;;3.53;;
66721;SDS011;53633;49.932;10.884;2023-05-29T07:19:42;8.82;;;3.08;;
66721;SDS011;53633;49.932;10.884;2023-05-29T07:22:09;6.40;;;3.17;;
66721;SDS011;53633;49.932;10.884;2023-05-29T07:24:35;6.22;;;2.92;;
66721;SDS011;53633;49.932;10.884;2023-05-29T07:27:04;6.75;;;3.38;;
66721;SDS011;53633;49.932;10.884;2023-05-29T07:29:31;6.60;;;3.05;;
66721;SDS011;53633;49.932;10.884;2023-05-29T07:31:57;7.18;;;3.20;;
66721;SDS011;53633;49.932;10.884;2023-05-29T07:34:24;6.53;;;2.90;;
66721;SDS011;53633;49.932;10.884;2023-05-29T07:36:58;5.78;;;2.75;;
66721;SDS011;53633;49.932;10.884;2023-05-29T07:39:26;6.72;;;2.67;;
66721;SDS011;53633;49.932;10.884;2023-05-29T07:41:53;7.47;;;3.05;;
66721;SDS011;53633;49.932;10.884;2023-05-29T07:44:21;6.22;;;2.95;;
66721;SDS011;53633;49.932;10.884;2023-05-29T07:46:48;8.07;;;2.80;;
66721;SDS011;53633;49.932;10.884;2023-05-29T07:49:15;6.85;;;2.63;;
66721;SDS011;53633;49.932;10.884;2023-05-29T07:51:42;7.13;;;2.85;;
66721;SDS011;53633;49.932;10.884;2023-05-29T07:54:08;7.68;;;2.92;;
66721;SDS011;53633;49.932;10.884;2023-05-29T07:56:35;5.40;;;2.65;;
66721;SDS011;53633;49.932;10.884;2023-05-29T07:59:02;6.37;;;2.60;;
66721;SDS011;53633;49.932;10.884;2023-05-29T08:01:30;6.15;;;2.83;;
66721;SDS011;53633;49.932;10.884;2023-05-29T08:03:57;6.13;;;2.78;;
66721;SDS011;53633;49.932;10.884;2023-05-29T08:06:24;7.00;;;2.88;;
66721;SDS011;53633;49.932;10.884;2023-05-29T08:08:53;8.82;;;2.88;;
66721;SDS011;53633;49.932;10.884;2023-05-29T08:11:20;8.00;;;2.90;;
66721;SDS011;53633;49.932;10.884;2023-05-29T08:13:47;7.38;;;2.47;;
66721;SDS011;53633;49.932;10.884;2023-05-29T08:16:14;5.97;;;2.47;;
66721;SDS011;53633;49.932;10.884;2023-05-29T08:18:42;7.28;;;3.03;;
66721;SDS011;53633;49.932;10.884;2023-05-29T08:21:09;6.47;;;2.90;;
66721;SDS011;53633;49.932;10.884;2023-05-29T08:23:36;8.20;;;2.70;;
66721;SDS011;53633;49.932;10.884;2023-05-29T08:26:04;6.30;;;2.72;;
66721;SDS011;53633;49.932;10.884;2023-05-29T08:28:30;6.82;;;3.30;;
66721;SDS011;53633;49.932;10.884;2023-05-29T08:30:57;6.50;;;2.92;;
66721;SDS011;53633;49.932;10.884;2023-05-29T08:33:24;6.72;;;2.90;;
66721;SDS011;53633;49.932;10.884;2023-05-29T08:35:52;6.97;;;2.60;;
66721;SDS011;53633;49.932;10.884;2023-05-29T08:38:19;6.15;;;2.50;;
66721;SDS011;53633;49.932;10.884;2023-05-29T08:40:46;7.47;;;2.90;;
66721;SDS011;53633;49.932;10.884;2023-05-29T08:43:15;6.85;;;2.70;;
66721;SDS011;53633;49.932;10.884;2023-05-29T08:45:44;8.20;;;2.70;;
66721;SDS011;53633;49.932;10.884;2023-05-29T08:48:11;7.43;;;3.00;;
66721;SDS011;53633;49.932;10.884;2023-05-29T08:50:40;7.75;;;2.72;;
66721;SDS011;53633;49.932;10.884;2023-05-29T08:53:12;6.85;;;3.17;;
66721;SDS011;53633;49.932;10.884;2023-05-29T08:55:39;8.38;;;2.85;;
66721;SDS011;53633;49.932;10.884;2023-05-29T08:58:06;7.22;;;2.55;;
66721;SDS011;53633;49.932;10.884;2023-05-29T09:00:35;5.93;;;2.43;;
66721;SDS011;53633;49.932;10.884;2023-05-29T09:03:02;8.32;;;2.78;;
66721;SDS011;53633;49.932;10.884;2023-05-29T09:05:29;6.93;;;3.03;;
66721;SDS011;53633;49.932;10.884;2023-05-29T09:07:56;7.03;;;2.80;;
66721;SDS011;53633;49.932;10.884;2023-05-29T09:10:25;6.82;;;2.65;;
66721;SDS011;53633;49.932;10.884;2023-05-29T09:12:52;6.60;;;2.60;;
66721;SDS011;53633;49.932;10.884;2023-05-29T09:15:19;6.95;;;2.90;;
66721;SDS011;53633;49.932;10.884;2023-05-29T09:17:50;5.53;;;2.67;;
66721;SDS011;53633;49.932;10.884;2023-05-29T09:20:18;5.00;;;2.53;;
66721;SDS011;53633;49.932;10.884;2023-05-29T09:22:46;6.35;;;3.05;;
66721;SDS011;53633;49.932;10.884;2023-05-29T09:25:19;7.57;;;3.20;;
66721;SDS011;53633;49.932;10.884;2023-05-29T09:27:47;5.93;;;2.90;;
66721;SDS011;53633;49.932;10.884;2023-05-29T09:30:15;6.80;;;2.75;;
66721;SDS011;53633;49.932;10.884;2023-05-29T09:32:58;5.72;;;2.58;;
66721;SDS011;53633;49.932;10.884;2023-05-29T09:35:26;7.90;;;3.10;;
66721;SDS011;53633;49.932;10.884;2023-05-29T09:37:53;6.87;;;2.90;;
66721;SDS011;53633;49.932;10.884;2023-05-29T09:40:20;5.82;;;2.72;;
66721;SDS011;53633;49.932;10.884;2023-05-29T09:42:48;6.68;;;3.17;;
66721;SDS011;53633;49.932;10.884;2023-05-29T09:45:16;6.70;;;3.53;;
66721;SDS011;53633;49.932;10.884;2023-05-29T09:47:43;5.93;;;2.90;;
66721;SDS011;53633;49.932;10.884;2023-05-29T09:50:17;5.93;;;2.73;;
66721;SDS011;53633;49.932;10.884;2023-05-29T09:52:45;8.07;;;3.15;;
66721;SDS011;53633;49.932;10.884;2023-05-29T09:55:11;8.63;;;3.30;;
66721;SDS011;53633;49.932;10.884;2023-05-29T09:57:39;5.93;;;3.00;;
66721;SDS011;53633;49.932;10.884;2023-05-29T10:00:09;5.68;;;2.80;;
66721;SDS011;53633;49.932;10.884;2023-05-29T10:02:37;8.47;;;3.00;;
66721;SDS011;53633;49.932;10.884;2023-05-29T10:05:04;7.72;;;2.50;;
66721;SDS011;53633;49.932;10.884;2023-05-29T10:07:31;7.93;;;2.92;;
66721;SDS011;53633;49.932;10.884;2023-05-29T10:10:02;6.53;;;2.65;;
66721;SDS011;53633;49.932;10.884;2023-05-29T10:12:30;6.78;;;2.60;;
66721;SDS011;53633;49.932;10.884;2023-05-29T10:14:59;6.53;;;2.60;;
66721;SDS011;53633;49.932;10.884;2023-05-29T10:17:28;6.03;;;2.70;;
66721;SDS011;53633;49.932;10.884;2023-05-29T10:20:00;6.43;;;2.80;;
66721;SDS011;53633;49.932;10.884;2023-05-29T10:22:28;6.03;;;2.20;;
66721;SDS011;53633;49.932;10.884;2023-05-29T10:24:58;9.18;;;3.28;;
66721;SDS011;53633;49.932;10.884;2023-05-29T10:27:26;5.77;;;2.43;;
66721;SDS011;53633;49.932;10.884;2023-05-29T10:29:55;5.57;;;2.63;;
66721;SDS011;53633;49.932;10.884;2023-05-29T10:32:29;7.05;;;2.60;;
66721;SDS011;53633;49.932;10.884;2023-05-29T10:35:05;7.22;;;2.67;;
66721;SDS011;53633;49.932;10.884;2023-05-29T10:37:36;6.40;;;2.70;;
66721;SDS011;53633;49.932;10.884;2023-05-29T10:40:07;9.90;;;2.77;;
66721;SDS011;53633;49.932;10.884;2023-05-29T10:42:41;5.80;;;2.78;;
66721;SDS011;53633;49.932;10.884;2023-05-29T10:48:37;5.72;;;2.20;;
66721;SDS011;53633;49.932;10.884;2023-05-29T10:51:08;8.77;;;2.70;;
66721;SDS011;53633;49.932;10.884;2023-05-29T10:53:50;6.83;;;2.47;;
66721;SDS011;53633;49.932;10.884;2023-05-29T10:56:20;6.43;;;2.42;;
66721;SDS011;53633;49.932;10.884;2023-05-29T10:58:49;6.00;;;2.53;;
66721;SDS011;53633;49.932;10.884;2023-05-29T11:01:20;67.70;;;34.28;;
66721;SDS011;53633;49.932;10.884;2023-05-29T11:03:49;11.38;;;5.47;;
66721;SDS011;53633;49.932;10.884;2023-05-29T11:06:18;8.97;;;4.00;;
66721;SDS011;53633;49.932;10.884;2023-05-29T11:08:46;42.95;;;21.08;;
66721;SDS011;53633;49.932;10.884;2023-05-29T11:11:14;36.78;;;17.70;;
66721;SDS011;53633;49.932;10.884;2023-05-29T11:13:41;28.58;;;12.82;;
66721;SDS011;53633;49.932;10.884;2023-05-29T11:16:19;35.38;;;15.48;;
66721;SDS011;53633;49.932;10.884;2023-05-29T11:19:04;59.90;;;23.80;;
66721;SDS011;53633;49.932;10.884;2023-05-29T11:21:33;93.95;;;42.33;;
66721;SDS011;53633;49.932;10.884;2023-05-29T11:24:05;50.50;;;23.73;;
66721;SDS011;53633;49.932;10.884;2023-05-29T11:26:33;30.98;;;19.10;;
66721;SDS011;53633;49.932;10.884;2023-05-29T11:29:03;20.98;;;9.13;;
66721;SDS011;53633;49.932;10.884;2023-05-29T11:31:31;20.40;;;12.00;;
66721;SDS011;53633;49.932;10.884;2023-05-29T11:33:59;9.23;;;4.25;;
66721;SDS011;53633;49.932;10.884;2023-05-29T11:36:29;6.95;;;2.80;;
66721;SDS011;53633;49.932;10.884;2023-05-29T11:38:57;5.93;;;2.15;;
66721;SDS011;53633;49.932;10.884;2023-05-29T11:41:24;5.07;;;2.20;;
66721;SDS011;53633;49.932;10.884;2023-05-29T11:43:57;5.97;;;2.10;;
66721;SDS011;53633;49.932;10.884;2023-05-29T11:46:24;6.97;;;2.53;;
66721;SDS011;53633;49.932;10.884;2023-05-29T11:48:51;6.35;;;2.42;;
66721;SDS011;53633;49.932;10.884;2023-05-29T11:51:18;7.25;;;2.38;;
66721;SDS011;53633;49.932;10.884;2023-05-29T11:53:48;7.05;;;2.30;;
66721;SDS011;53633;49.932;10.884;2023-05-29T11:56:15;7.80;;;2.50;;
66721;SDS011;53633;49.932;10.884;2023-05-29T11:58:42;6.35;;;2.30;;
66721;SDS011;53633;49.932;10.884;2023-05-29T12:01:09;8.90;;;2.70;;
66721;SDS011;53633;49.932;10.884;2023-05-29T12:03:39;8.93;;;2.38;;
66721;SDS011;53633;49.932;10.884;2023-05-29T12:06:07;7.60;;;2.70;;
66721;SDS011;53633;49.932;10.884;2023-05-29T12:08:35;6.57;;;2.57;;
66721;SDS011;53633;49.932;10.884;2023-05-29T12:11:03;12.15;;;2.42;;
66721;SDS011;53633;49.932;10.884;2023-05-29T12:13:30;5.50;;;2.22;;
66721;SDS011;53633;49.932;10.884;2023-05-29T12:15:58;6.50;;;2.15;;
66721;SDS011;53633;49.932;10.884;2023-05-29T12:18:26;7.22;;;2.13;;
66721;SDS011;53633;49.932;10.884;2023-05-29T12:20:56;6.47;;;2.50;;
66721;SDS011;53633;49.932;10.884;2023-05-29T12:23:24;6.85;;;2.40;;
66721;SDS011;53633;49.932;10.884;2023-05-29T12:25:50;5.97;;;2.30;;
66721;SDS011;53633;49.932;10.884;2023-05-29T12:28:27;7.80;;;2.28;;
66721;SDS011;53633;49.932;10.884;2023-05-29T12:30:58;6.15;;;2.50;;
66721;SDS011;53633;49.932;10.884;2023-05-29T12:33:27;6.60;;;2.60;;
66721;SDS011;53633;49.932;10.884;2023-05-29T12:36:00;7.05;;;2.50;;
66721;SDS011;53633;49.932;10.884;2023-05-29T12:38:27;6.68;;;2.47;;
66721;SDS011;53633;49.932;10.884;2023-05-29T12:40:54;6.35;;;2.20;;
66721;SDS011;53633;49.932;10.884;2023-05-29T12:43:21;6.85;;;2.35;;
66721;SDS011;53633;49.932;10.884;2023-05-29T12:45:55;7.00;;;2.53;;
66721;SDS011;53633;49.932;10.884;2023-05-29T12:48:25;6.13;;;2.50;;
66721;SDS011;53633;49.932;10.884;2023-05-29T12:50:52;5.68;;;2.42;;
66721;SDS011;53633;49.932;10.884;2023-05-29T12:53:19;5.82;;;2.22;;
66721;SDS011;53633;49.932;10.884;2023-05-29T12:55:46;6.03;;;2.63;;
66721;SDS011;53633;49.932;10.884;2023-05-29T12:58:14;7.23;;;2.53;;
66721;SDS011;53633;49.932;10.884;2023-05-29T13:00:42;6.35;;;2.42;;
66721;SDS011;53633;49.932;10.884;2023-05-29T13:03:11;6.85;;;2.20;;
66721;SDS011;53633;49.932;10.884;2023-05-29T13:05:38;6.68;;;2.53;;
66721;SDS011;53633;49.932;10.884;2023-05-29T13:08:06;6.03;;;2.80;;
66721;SDS011;53633;49.932;10.884;2023-05-29T13:10:33;5.57;;;2.43;;
66721;SDS011;53633;49.932;10.884;2023-05-29T13:12:59;5.40;;;2.10;;
66721;SDS011;53633;49.932;10.884;2023-05-29T13:15:26;7.90;;;2.90;;
66721;SDS011;53633;49.932;10.884;2023-05-29T13:17:53;7.93;;;2.50;;
66721;SDS011;53633;49.932;10.884;2023-05-29T13:20:21;7.07;;;2.25;;
66721;SDS011;53633;49.932;10.884;2023-05-29T13:22:48;7.10;;;2.30;;
66721;SDS011;53633;49.932;10.884;2023-05-29T13:25:15;6.07;;;2.38;;
66721;SDS011;53633;49.932;10.884;2023-05-29T13:27:44;8.55;;;2.65;;
66721;SDS011;53633;49.932;10.884;2023-05-29T13:30:13;6.75;;;2.30;;
66721;SDS011;53633;49.932;10.884;2023-05-29T13:32:40;6.72;;;2.70;;
66721;SDS011;53633;49.932;10.884;2023-05-29T13:35:07;6.80;;;2.50;;
66721;SDS011;53633;49.932;10.884;2023-05-29T13:37:36;6.35;;;2.33;;
66721;SDS011;53633;49.932;10.884;2023-05-29T13:40:03;6.13;;;2.45;;
66721;SDS011;53633;49.932;10.884;2023-05-29T13:42:31;5.63;;;2.10;;
66721;SDS011;53633;49.932;10.884;2023-05-29T13:44:58;7.88;;;2.25;;
66721;SDS011;53633;49.932;10.884;2023-05-29T13:47:25;7.27;;;2.17;;
66721;SDS011;53633;49.932;10.884;2023-05-29T13:49:51;5.93;;;2.13;;
66721;SDS011;53633;49.932;10.884;2023-05-29T13:52:18;5.90;;;2.38;;
66721;SDS011;53633;49.932;10.884;2023-05-29T13:54:46;8.10;;;2.63;;
66721;SDS011;53633;49.932;10.884;2023-05-29T13:57:13;6.28;;;2.40;;
66721;SDS011;53633;49.932;10.884;2023-05-29T13:59:40;6.40;;;2.63;;
66721;SDS011;53633;49.932;10.884;2023-05-29T14:02:06;6.57;;;2.40;;
66721;SDS011;53633;49.932;10.884;2023-05-29T14:04:33;7.10;;;2.63;;
66721;SDS011;53633;49.932;10.884;2023-05-29T14:07:00;6.35;;;2.38;;
66721;SDS011;53633;49.932;10.884;2023-05-29T14:09:26;6.28;;;2.60;;
66721;SDS011;53633;49.932;10.884;2023-05-29T14:11:55;5.57;;;2.20;;
66721;SDS011;53633;49.932;10.884;2023-05-29T14:14:22;6.78;;;2.30;;
66721;SDS011;53633;49.932;10.884;2023-05-29T14:16:49;6.47;;;2.50;;
66721;SDS011;53633;49.932;10.884;2023-05-29T14:19:17;5.95;;;2.50;;
66721;SDS011;53633;49.932;10.884;2023-05-29T14:21:44;6.78;;;2.10;;
66721;SDS011;53633;49.932;10.884;2023-05-29T14:24:10;6.07;;;2.03;;
66721;SDS011;53633;49.932;10.884;2023-05-29T14:26:37;5.97;;;2.20;;
66721;SDS011;53633;49.932;10.884;2023-05-29T14:29:06;6.28;;;2.65;;
66721;SDS011;53633;49.932;10.884;2023-05-29T14:31:40;5.80;;;2.42;;
66721;SDS011;53633;49.932;10.884;2023-05-29T14:34:07;5.82;;;2.35;;
66721;SDS011;53633;49.932;10.884;2023-05-29T14:36:33;7.07;;;2.30;;
66721;SDS011;53633;49.932;10.884;2023-05-29T14:39:00;6.80;;;2.35;;
66721;SDS011;53633;49.932;10.884;2023-05-29T14:41:27;6.82;;;2.72;;